createdAt,value
2018-05-13T00:03:53.621Z,7.60
2018-05-13T00:09:21.753Z,9.80
2018-05-13T00:14:49.903Z,7.90
2018-05-13T00:20:18.815Z,7.60
2018-05-13T00:25:46.962Z,8.27
2018-05-13T00:31:16.045Z,7.97
2018-05-13T00:36:44.187Z,8.57
2018-05-13T00:42:12.406Z,7.87
2018-05-13T00:47:40.586Z,7.50
2018-05-13T00:53:08.772Z,9.50
2018-05-13T00:58:36.994Z,12.00
2018-05-13T01:04:05.900Z,9.10
2018-05-13T01:09:34.067Z,10.10
2018-05-13T01:15:02.254Z,8.00
2018-05-13T01:20:30.404Z,8.90
2018-05-13T01:25:59.320Z,10.00
2018-05-13T01:31:27.479Z,8.87
2018-05-13T01:36:55.638Z,9.27
2018-05-13T01:42:23.793Z,10.47
2018-05-13T01:47:52.695Z,8.87
2018-05-13T01:53:20.844Z,9.20
2018-05-13T01:58:48.984Z,8.43
2018-05-13T02:04:17.133Z,10.27
2018-05-13T02:09:45.295Z,10.20
2018-05-13T02:15:14.207Z,8.03
2018-05-13T02:20:42.388Z,9.80
2018-05-13T02:26:10.631Z,10.03
2018-05-13T02:31:38.773Z,9.43
2018-05-13T02:37:06.968Z,12.33
2018-05-13T02:42:35.156Z,9.40
2018-05-13T02:48:03.317Z,10.90
2018-05-13T02:53:31.886Z,11.60
2018-05-13T02:59:00.024Z,9.17
2018-05-13T03:04:28.947Z,13.07
2018-05-13T03:09:57.867Z,11.00
2018-05-13T03:15:26.008Z,10.63
2018-05-13T03:20:54.945Z,10.20
2018-05-13T03:26:23.847Z,12.47
2018-05-13T03:31:52.003Z,12.57
2018-05-13T03:37:20.922Z,12.97
2018-05-13T03:42:49.070Z,14.23
2018-05-13T03:48:17.994Z,13.07
2018-05-13T03:53:46.161Z,11.67
2018-05-13T03:59:14.309Z,11.23
2018-05-13T04:04:42.451Z,12.50
2018-05-13T04:16:24.381Z,11.80
2018-05-13T04:21:53.301Z,9.43
2018-05-13T04:27:22.210Z,8.23
2018-05-13T04:32:50.354Z,11.03
2018-05-13T04:38:19.256Z,10.50
2018-05-13T04:43:47.413Z,9.97
2018-05-13T04:49:15.544Z,8.17
2018-05-13T04:54:44.453Z,10.47
2018-05-13T05:00:12.611Z,8.43
2018-05-13T05:05:41.525Z,9.13
2018-05-13T05:11:09.679Z,7.73
2018-05-13T05:16:37.849Z,11.27
2018-05-13T05:22:06.036Z,8.83
2018-05-13T05:27:34.205Z,9.00
2018-05-13T05:33:03.141Z,8.23
2018-05-13T05:38:32.067Z,9.23
2018-05-13T05:44:00.208Z,10.07
2018-05-13T05:49:29.120Z,9.90
2018-05-13T05:54:57.257Z,7.63
2018-05-13T06:00:26.163Z,7.90
2018-05-13T06:05:54.316Z,8.87
2018-05-13T06:11:23.237Z,11.53
2018-05-13T06:16:51.375Z,9.30
2018-05-13T06:22:20.288Z,10.07
2018-05-13T06:27:48.442Z,10.97
2018-05-13T06:33:17.358Z,8.37
2018-05-13T06:38:45.505Z,9.27
2018-05-13T06:44:13.671Z,10.93
2018-05-13T06:49:41.808Z,8.57
2018-05-13T06:55:09.963Z,9.30
2018-05-13T07:00:38.174Z,9.10
2018-05-13T07:06:07.168Z,11.83
2018-05-13T07:11:35.305Z,13.07
2018-05-13T07:17:03.444Z,11.10
2018-05-13T07:22:32.367Z,10.13
2018-05-13T07:28:00.552Z,11.43
2018-05-13T07:33:28.745Z,8.90
2018-05-13T07:38:56.871Z,11.93
2018-05-13T07:44:25.051Z,9.20
2018-05-13T07:49:53.155Z,12.20
2018-05-13T07:55:21.509Z,12.70
2018-05-13T08:00:51.372Z,11.80
2018-05-13T08:06:20.283Z,11.20
2018-05-13T08:11:48.428Z,9.77
2018-05-13T08:17:18.289Z,9.67
2018-05-13T08:22:47.205Z,9.77
2018-05-13T08:28:15.336Z,8.87
2018-05-13T08:33:43.475Z,12.20
2018-05-13T08:39:12.428Z,11.47
2018-05-13T08:44:40.571Z,9.90
2018-05-13T08:50:08.753Z,10.90
2018-05-13T08:55:37.713Z,11.20
2018-05-13T09:01:06.195Z,11.20
2018-05-13T09:06:35.384Z,10.07
2018-05-13T09:12:03.584Z,12.77
2018-05-13T09:17:31.831Z,11.77
2018-05-13T09:23:03.843Z,15.73
2018-05-13T09:28:32.071Z,11.13
2018-05-13T09:34:00.245Z,10.80
2018-05-13T09:39:28.439Z,9.07
2018-05-13T09:44:56.574Z,10.60
2018-05-13T09:50:25.492Z,12.70
2018-05-13T09:55:53.633Z,8.77
2018-05-13T10:01:22.540Z,10.23
2018-05-13T10:06:50.699Z,11.17
2018-05-13T10:12:19.595Z,9.40
2018-05-13T10:17:47.749Z,8.47
2018-05-13T10:23:16.662Z,6.57
2018-05-13T10:28:44.804Z,16.13
2018-05-13T10:34:13.717Z,7.00
2018-05-13T10:39:41.860Z,5.97
2018-05-13T10:45:10.765Z,7.73
2018-05-13T10:50:38.968Z,5.90
2018-05-13T10:56:07.146Z,6.37
2018-05-13T11:01:36.130Z,9.40
2018-05-13T11:07:04.297Z,7.27
2018-05-13T11:12:33.254Z,10.47
2018-05-13T11:18:02.165Z,10.43
2018-05-13T11:23:31.157Z,8.60
2018-05-13T11:28:59.309Z,8.10
2018-05-13T11:34:27.456Z,6.20
2018-05-13T11:39:55.670Z,8.27
2018-05-13T11:45:23.804Z,9.33
2018-05-13T11:50:52.988Z,6.50
2018-05-13T11:56:21.414Z,7.63
2018-05-13T12:01:49.539Z,7.83
2018-05-13T12:07:17.820Z,7.17
2018-05-13T12:12:46.826Z,13.30
2018-05-13T12:18:16.004Z,9.07
2018-05-13T12:23:44.963Z,5.47
2018-05-13T12:29:13.151Z,7.30
2018-05-13T12:34:41.361Z,8.93
2018-05-13T12:40:09.549Z,6.80
2018-05-13T12:45:37.748Z,7.63
2018-05-13T12:51:05.936Z,6.90
2018-05-13T12:56:34.106Z,4.47
2018-05-13T13:02:02.288Z,3.07
2018-05-13T13:07:30.457Z,2.70
2018-05-13T13:12:59.526Z,3.47
2018-05-13T13:18:27.691Z,5.37
2018-05-13T13:23:55.842Z,5.87
2018-05-13T13:29:24.056Z,2.93
2018-05-13T13:34:52.288Z,2.60
2018-05-13T13:40:20.441Z,5.43
2018-05-13T13:45:49.345Z,3.07
2018-05-13T13:51:17.490Z,2.50
2018-05-13T13:56:46.405Z,2.67
2018-05-13T14:02:14.567Z,5.10
2018-05-13T14:07:42.797Z,3.47
2018-05-13T14:13:11.057Z,2.70
2018-05-13T14:18:39.395Z,3.70
2018-05-13T14:24:07.594Z,2.80
2018-05-13T14:29:35.802Z,2.50
2018-05-13T14:35:04.923Z,5.43
2018-05-13T14:40:33.138Z,4.67
2018-05-13T14:46:01.286Z,2.93
2018-05-13T14:51:29.466Z,2.13
2018-05-13T14:56:58.385Z,2.70
2018-05-13T15:02:26.546Z,3.67
2018-05-13T15:07:54.695Z,2.67
2018-05-13T15:13:22.897Z,2.33
2018-05-13T15:18:51.047Z,3.70
2018-05-13T15:24:21.132Z,4.93
2018-05-13T15:29:49.309Z,8.30
2018-05-13T15:35:17.480Z,4.93
2018-05-13T15:40:48.373Z,5.67
2018-05-13T15:46:17.302Z,6.43
2018-05-13T15:51:45.501Z,12.67
2018-05-13T15:57:13.667Z,27.70
2018-05-13T16:02:41.842Z,8.50
2018-05-13T16:08:10.021Z,12.27
2018-05-13T16:13:38.244Z,6.90
2018-05-13T16:19:06.514Z,10.40
2018-05-13T16:24:35.464Z,10.53
2018-05-13T16:30:04.482Z,9.73
2018-05-13T16:35:32.664Z,11.20
2018-05-13T16:41:01.810Z,14.87
2018-05-13T16:46:29.974Z,12.80
2018-05-13T16:51:58.111Z,17.00
2018-05-13T16:57:27.038Z,17.10
2018-05-13T17:02:55.953Z,9.17
2018-05-13T17:08:24.104Z,13.17
2018-05-13T17:13:53.013Z,13.07
2018-05-13T17:19:21.174Z,10.13
2018-05-13T17:24:49.321Z,9.60
2018-05-13T17:30:18.422Z,9.67
2018-05-13T17:35:47.430Z,8.27
2018-05-13T17:41:15.666Z,13.63
2018-05-13T17:46:44.498Z,10.73
2018-05-13T17:52:13.590Z,8.07
2018-05-13T17:57:41.884Z,3.73
2018-05-13T18:03:10.024Z,2.17
2018-05-13T18:08:38.970Z,3.07
2018-05-13T18:14:07.144Z,9.10
2018-05-13T18:19:35.312Z,6.27
2018-05-13T18:25:04.270Z,9.23
2018-05-13T18:30:32.468Z,9.37
2018-05-13T18:36:00.627Z,9.33
2018-05-13T18:41:28.833Z,8.27
2018-05-13T18:46:57.044Z,5.10
2018-05-13T18:52:31.639Z,7.07
2018-05-13T18:57:59.881Z,8.70
2018-05-13T19:03:28.228Z,5.30
2018-05-13T19:08:57.171Z,6.60
2018-05-13T19:14:25.381Z,5.73
2018-05-13T19:19:54.408Z,10.90
2018-05-13T19:25:24.010Z,8.70
2018-05-13T19:30:52.181Z,12.20
2018-05-13T19:36:20.319Z,9.63
2018-05-13T19:41:48.521Z,11.40
2018-05-13T19:47:17.435Z,12.27
2018-05-13T19:52:45.610Z,12.67
2018-05-13T19:58:13.798Z,20.37
2018-05-13T20:03:42.826Z,18.50
2018-05-13T20:09:11.059Z,22.97
2018-05-13T20:14:39.293Z,28.17
2018-05-13T20:20:08.285Z,26.07
2018-05-13T20:25:36.577Z,29.80
2018-05-13T20:31:04.728Z,23.20
2018-05-13T20:36:32.907Z,21.57
2018-05-13T20:42:01.108Z,28.73
2018-05-13T20:47:29.271Z,22.43
2018-05-13T20:52:57.401Z,21.73
2018-05-13T20:58:25.568Z,22.70
2018-05-13T21:03:54.500Z,21.37
2018-05-13T21:09:23.418Z,26.67
2018-05-13T21:14:51.735Z,22.87
2018-05-13T21:20:19.947Z,24.40
2018-05-13T21:25:48.106Z,24.97
2018-05-13T21:31:17.962Z,24.80
2018-05-13T21:36:46.892Z,25.90
2018-05-13T21:42:15.867Z,23.97
2018-05-13T21:47:44.109Z,27.97
2018-05-13T21:53:12.240Z,28.13
2018-05-13T21:58:40.915Z,28.15
2018-05-13T22:04:09.103Z,27.53
2018-05-13T22:09:37.272Z,23.30
2018-05-13T22:15:06.214Z,25.40
2018-05-13T22:20:34.406Z,28.47
2018-05-13T22:26:02.572Z,23.90
2018-05-13T22:31:30.721Z,22.43
2018-05-13T22:36:58.901Z,28.13
2018-05-13T22:42:27.058Z,23.57
2018-05-13T22:47:55.193Z,24.03
2018-05-13T22:53:23.340Z,18.30
2018-05-13T22:58:52.272Z,23.13
2018-05-13T23:04:21.187Z,20.60
2018-05-13T23:09:49.365Z,16.10
2018-05-13T23:15:17.523Z,18.70
2018-05-13T23:20:45.660Z,20.47
2018-05-13T23:26:14.592Z,22.00
2018-05-13T23:31:42.750Z,19.30
2018-05-13T23:37:10.940Z,20.33
2018-05-13T23:42:39.156Z,23.30
2018-05-13T23:48:08.101Z,20.00
2018-05-13T23:53:37.050Z,19.73
2018-05-13T23:59:06.096Z,19.57
